createdAt,value
2019-03-01T00:02:12.057Z,98256.16
2019-03-01T00:05:14.007Z,98245.45
2019-03-01T00:08:18.794Z,98245.26
2019-03-01T00:11:30.753Z,98249.77
2019-03-01T00:14:23.715Z,98253.81
2019-03-01T00:17:29.779Z,98253.91
2019-03-01T00:20:35.839Z,98254.41
2019-03-01T00:23:29.006Z,98247.70
2019-03-01T00:26:54.565Z,98244.00
2019-03-01T00:30:03.745Z,98245.27
2019-03-01T00:33:16.247Z,98242.13
2019-03-01T00:36:40.577Z,98243.11
2019-03-01T00:39:38.217Z,98241.58
2019-03-01T00:42:28.333Z,98239.20
2019-03-01T00:44:57.515Z,98231.36
2019-03-01T00:47:26.688Z,98232.81
2019-03-01T00:49:55.964Z,98236.05
2019-03-01T00:52:25.156Z,98235.61
2019-03-01T00:54:54.303Z,98227.91
2019-03-01T00:57:23.539Z,98222.39
2019-03-01T00:59:52.926Z,98222.10
2019-03-01T01:02:22.154Z,98212.30
2019-03-01T01:04:51.405Z,98218.34
2019-03-01T01:07:20.535Z,98211.55
2019-03-01T01:09:49.707Z,98206.22
2019-03-01T01:12:18.979Z,98199.08
2019-03-01T01:14:48.203Z,98191.59
2019-03-01T01:17:17.364Z,98194.89
2019-03-01T01:19:46.548Z,98191.09
2019-03-01T01:22:15.707Z,98195.66
2019-03-01T01:24:44.864Z,98195.59
2019-03-01T01:27:14.207Z,98186.00
2019-03-01T01:29:43.369Z,98188.23
2019-03-01T01:32:12.549Z,98191.38
2019-03-01T01:34:41.699Z,98188.28
2019-03-01T01:37:10.883Z,98183.80
2019-03-01T01:39:40.013Z,98178.48
2019-03-01T01:42:09.208Z,98166.89
2019-03-01T01:44:38.392Z,98169.06
2019-03-01T01:47:07.583Z,98166.38
2019-03-01T01:49:36.716Z,98156.11
2019-03-01T01:52:05.967Z,98153.51
2019-03-01T01:54:35.101Z,98156.16
2019-03-01T01:57:04.253Z,98156.11
2019-03-01T01:59:33.418Z,98157.44
2019-03-01T02:02:02.610Z,98156.02
2019-03-01T02:04:31.815Z,98155.96
2019-03-01T02:07:01.008Z,98142.81
2019-03-01T02:09:30.163Z,98150.16
2019-03-01T02:11:59.433Z,98151.48
2019-03-01T02:14:28.651Z,98140.98
2019-03-01T02:16:58.192Z,98149.69
2019-03-01T02:19:27.332Z,98147.44
2019-03-01T02:21:56.489Z,98143.79
2019-03-01T02:24:25.785Z,98142.55
2019-03-01T02:27:20.682Z,98140.50
2019-03-01T02:29:49.831Z,98140.20
2019-03-01T02:32:23.823Z,98139.86
2019-03-01T02:34:52.967Z,98133.21
2019-03-01T02:37:22.126Z,98142.47
2019-03-01T02:39:51.615Z,98124.19
2019-03-01T02:42:20.788Z,98124.28
2019-03-01T02:44:50.012Z,98117.28
2019-03-01T02:47:19.162Z,98112.22
2019-03-01T02:49:48.339Z,98106.84
2019-03-01T02:52:17.511Z,98107.88
2019-03-01T02:54:46.597Z,98103.30
2019-03-01T02:57:15.757Z,98096.21
2019-03-01T02:59:44.917Z,98085.26
2019-03-01T03:02:14.138Z,98075.66
2019-03-01T03:04:43.313Z,98079.02
2019-03-01T03:07:17.235Z,98075.17
2019-03-01T03:09:46.441Z,98071.77
2019-03-01T03:12:15.582Z,98061.48
2019-03-01T03:14:44.767Z,98061.42
2019-03-01T03:17:13.943Z,98064.42
2019-03-01T03:19:43.112Z,98067.08
2019-03-01T03:22:12.268Z,98063.64
2019-03-01T03:24:41.455Z,98075.75
2019-03-01T03:27:10.596Z,98064.83
2019-03-01T03:29:39.815Z,98066.56
2019-03-01T03:32:09.244Z,98066.65
2019-03-01T03:34:38.509Z,98071.33
2019-03-01T03:37:07.667Z,98067.34
2019-03-01T03:39:36.838Z,98072.57
2019-03-01T03:42:06.264Z,98071.73
2019-03-01T03:44:35.419Z,98063.32
2019-03-01T03:47:04.571Z,98063.01
2019-03-01T03:49:33.768Z,98064.39
2019-03-01T03:52:02.923Z,98067.63
2019-03-01T03:54:32.076Z,98058.93
2019-03-01T03:57:01.209Z,98067.34
2019-03-01T03:59:30.375Z,98067.89
2019-03-01T04:01:59.527Z,98072.31
2019-03-01T04:04:28.702Z,98074.77
2019-03-01T04:06:57.947Z,98071.24
2019-03-01T04:09:27.131Z,98066.56
2019-03-01T04:11:56.270Z,98064.73
2019-03-01T04:14:25.951Z,98061.09
2019-03-01T04:16:55.089Z,98057.89
2019-03-01T04:19:24.273Z,98058.23
2019-03-01T04:21:53.453Z,98052.86
2019-03-01T04:24:22.637Z,98048.94
2019-03-01T04:26:51.789Z,98057.95
2019-03-01T04:29:21.319Z,98051.25
2019-03-01T04:31:50.480Z,98056.02
2019-03-01T04:34:19.672Z,98049.82
2019-03-01T04:36:48.855Z,98052.28
2019-03-01T04:39:18.009Z,98051.79
2019-03-01T04:41:47.073Z,98049.08
2019-03-01T04:44:16.707Z,98052.08
2019-03-01T04:46:45.843Z,98059.02
2019-03-01T04:49:15.024Z,98051.88
2019-03-01T04:51:45.350Z,98049.82
2019-03-01T04:54:14.512Z,98045.14
2019-03-01T04:56:43.658Z,98042.82
2019-03-01T04:59:12.842Z,98040.38
2019-03-01T05:01:44.793Z,98038.25
2019-03-01T05:04:13.973Z,98043.38
2019-03-01T05:06:43.244Z,98043.47
2019-03-01T05:09:12.376Z,98046.77
2019-03-01T05:11:41.580Z,98043.06
2019-03-01T05:14:10.734Z,98036.77
2019-03-01T05:16:39.887Z,98038.16
2019-03-01T05:19:09.094Z,98041.05
2019-03-01T05:21:38.262Z,98037.86
2019-03-01T05:24:07.399Z,98031.74
2019-03-01T05:26:36.553Z,98036.77
2019-03-01T05:29:05.782Z,98036.08
2019-03-01T05:31:34.918Z,98032.30
2019-03-01T05:34:04.091Z,98036.63
2019-03-01T05:36:33.247Z,98033.18
2019-03-01T05:39:02.424Z,98033.62
2019-03-01T05:41:31.782Z,98039.48
2019-03-01T05:44:01.097Z,98034.75
2019-03-01T05:46:30.266Z,98041.88
2019-03-01T05:48:59.442Z,98040.47
2019-03-01T05:51:28.612Z,98041.89
2019-03-01T05:53:57.797Z,98038.94
2019-03-01T05:56:26.964Z,98033.22
2019-03-01T05:59:11.819Z,98051.19
2019-03-01T06:02:15.744Z,98037.35
2019-03-01T06:04:54.751Z,98045.88
2019-03-01T06:07:44.857Z,98045.88
2019-03-01T06:10:31.735Z,98051.94
2019-03-01T06:13:33.299Z,98051.09
2019-03-01T06:16:35.555Z,98059.08
2019-03-01T06:19:31.825Z,98060.89
2019-03-01T06:22:44.104Z,98060.00
2019-03-01T06:25:53.118Z,98065.58
2019-03-01T06:28:46.372Z,98075.46
2019-03-01T06:31:40.813Z,98058.59
2019-03-01T06:34:41.596Z,98066.50
2019-03-01T06:37:26.216Z,98053.12
2019-03-01T06:40:58.525Z,98054.20
2019-03-01T06:44:02.050Z,98060.70
2019-03-01T06:46:59.414Z,98046.22
2019-03-01T06:49:47.999Z,98048.19
2019-03-01T06:52:20.696Z,98038.10
2019-03-01T06:54:51.564Z,98039.34
2019-03-01T06:57:21.671Z,98044.20
2019-03-01T06:59:51.647Z,98044.20
2019-03-01T07:02:30.635Z,98041.59
2019-03-01T07:05:00.359Z,98039.13
2019-03-01T07:07:30.046Z,98037.75
2019-03-01T07:09:59.779Z,98045.20
2019-03-01T07:12:36.953Z,98042.03
2019-03-01T07:15:10.575Z,98049.67
2019-03-01T07:17:39.735Z,98047.50
2019-03-01T07:20:09.134Z,98045.44
2019-03-01T07:22:38.297Z,98044.45
2019-03-01T07:25:07.492Z,98043.36
2019-03-01T07:27:36.655Z,98044.80
2019-03-01T07:30:06.084Z,98045.63
2019-03-01T07:32:35.205Z,98048.14
2019-03-01T07:35:04.868Z,98052.56
2019-03-01T07:37:34.057Z,98055.41
2019-03-01T07:40:03.233Z,98056.70
2019-03-01T07:42:32.397Z,98062.52
2019-03-01T07:45:01.567Z,98059.66
2019-03-01T07:47:30.706Z,98048.97
2019-03-01T07:49:59.877Z,98054.48
2019-03-01T07:52:29.036Z,98065.87
2019-03-01T07:54:58.222Z,98070.41
2019-03-01T07:57:27.354Z,98077.72
2019-03-01T07:59:56.939Z,98068.86
2019-03-01T08:02:26.308Z,98077.84
2019-03-01T08:04:55.504Z,98074.86
2019-03-01T08:07:24.701Z,98072.95
2019-03-01T08:09:54.253Z,98078.72
2019-03-01T08:12:23.406Z,98080.25
2019-03-01T08:14:52.587Z,98078.36
2019-03-01T08:17:21.750Z,98084.99
2019-03-01T08:19:50.926Z,98087.92
2019-03-01T08:22:20.848Z,98087.33
2019-03-01T08:24:51.048Z,98093.00
2019-03-01T08:27:20.189Z,98089.76
2019-03-01T08:29:49.336Z,98098.37
2019-03-01T08:32:18.522Z,98098.37
2019-03-01T08:34:49.830Z,98102.17
2019-03-01T08:37:18.583Z,98106.51
2019-03-01T08:39:49.642Z,98108.96
2019-03-01T08:42:18.535Z,98108.32
2019-03-01T08:44:47.716Z,98116.52
2019-03-01T08:47:23.263Z,98114.84
2019-03-01T08:49:47.765Z,98113.00
2019-03-01T08:52:16.998Z,98120.16
2019-03-01T08:54:46.151Z,98122.08
2019-03-01T08:57:15.323Z,98118.97
2019-03-01T08:59:44.494Z,98127.28
2019-03-01T09:02:13.673Z,98121.92
2019-03-01T09:04:50.731Z,98125.27
2019-03-01T09:07:13.672Z,98115.27
2019-03-01T09:09:43.202Z,98121.20
2019-03-01T09:12:12.313Z,98116.44
2019-03-01T09:14:41.517Z,98118.88
2019-03-01T09:17:10.871Z,98122.45
2019-03-01T09:19:40.072Z,98123.14
2019-03-01T09:22:09.221Z,98123.62
2019-03-01T09:24:38.414Z,98121.81
2019-03-01T09:27:07.721Z,98122.43
2019-03-01T09:29:41.458Z,98126.58
2019-03-01T09:32:08.054Z,98116.32
2019-03-01T09:34:37.585Z,98115.97
2019-03-01T09:37:06.757Z,98119.03
2019-03-01T09:39:36.019Z,98118.69
2019-03-01T09:42:06.388Z,98118.81
2019-03-01T09:44:38.323Z,98117.72
2019-03-01T09:47:07.416Z,98117.42
2019-03-01T09:49:36.579Z,98123.23
2019-03-01T09:52:05.863Z,98123.92
2019-03-01T09:54:35.008Z,98115.82
2019-03-01T09:57:04.170Z,98117.77
2019-03-01T09:59:33.384Z,98120.39
2019-03-01T10:02:02.544Z,98119.86
2019-03-01T10:04:31.729Z,98120.09
2019-03-01T10:07:01.030Z,98119.24
2019-03-01T10:09:30.209Z,98119.41
2019-03-01T10:11:59.488Z,98122.76
2019-03-01T10:14:28.670Z,98125.92
2019-03-01T10:16:57.841Z,98126.75
2019-03-01T10:19:27.045Z,98123.41
2019-03-01T10:21:56.357Z,98129.19
2019-03-01T10:24:25.602Z,98127.55
2019-03-01T10:26:54.761Z,98122.08
2019-03-01T10:29:23.925Z,98128.28
2019-03-01T10:31:53.031Z,98136.11
2019-03-01T10:34:22.156Z,98133.22
2019-03-01T10:36:51.339Z,98131.55
2019-03-01T10:39:21.031Z,98136.55
2019-03-01T10:41:50.704Z,98143.63
2019-03-01T10:44:20.236Z,98139.84
2019-03-01T10:46:49.685Z,98138.28
2019-03-01T10:49:18.989Z,98138.44
2019-03-01T10:51:48.404Z,98139.03
2019-03-01T10:54:17.523Z,98135.64
2019-03-01T10:56:46.705Z,98138.65
2019-03-01T10:59:16.249Z,98140.17
2019-03-01T11:01:45.690Z,98140.89
2019-03-01T11:04:15.203Z,98140.70
2019-03-01T11:06:44.741Z,98139.96
2019-03-01T11:09:14.189Z,98141.70
2019-03-01T11:11:43.475Z,98142.59
2019-03-01T11:14:12.793Z,98139.54
2019-03-01T11:16:42.057Z,98138.94
2019-03-01T11:19:11.197Z,98140.12
2019-03-01T11:21:40.362Z,98149.25
2019-03-01T11:24:09.615Z,98153.85
2019-03-01T11:26:39.162Z,98153.02
2019-03-01T11:29:08.458Z,98152.56
2019-03-01T11:31:37.773Z,98160.73
2019-03-01T11:34:07.222Z,98161.93
2019-03-01T11:36:36.425Z,98163.41
2019-03-01T11:39:06.910Z,98161.28
2019-03-01T11:41:36.077Z,98166.80
2019-03-01T11:44:05.393Z,98161.63
2019-03-01T11:46:34.577Z,98165.08
2019-03-01T11:49:03.836Z,98158.50
2019-03-01T11:51:32.976Z,98163.47
2019-03-01T11:54:02.256Z,98162.95
2019-03-01T11:56:31.414Z,98159.27
2019-03-01T11:59:00.898Z,98158.95
2019-03-01T12:01:30.033Z,98161.03
2019-03-01T12:03:59.210Z,98161.59
2019-03-01T12:06:28.385Z,98166.03
2019-03-01T12:08:57.605Z,98167.09
2019-03-01T12:11:26.743Z,98166.77
2019-03-01T12:13:55.909Z,98168.76
2019-03-01T12:16:25.067Z,98173.66
2019-03-01T12:18:54.261Z,98170.52
2019-03-01T12:21:23.417Z,98171.14
2019-03-01T12:23:52.579Z,98172.79
2019-03-01T12:26:21.779Z,98175.70
2019-03-01T12:28:51.104Z,98180.41
2019-03-01T12:31:20.284Z,98178.41
2019-03-01T12:33:49.481Z,98183.06
2019-03-01T12:36:18.956Z,98181.92
2019-03-01T12:38:48.184Z,98188.22
2019-03-01T12:41:17.461Z,98188.56
2019-03-01T12:43:46.649Z,98189.75
2019-03-01T12:46:16.186Z,98200.31
2019-03-01T12:48:45.355Z,98203.80
2019-03-01T12:51:14.474Z,98206.44
2019-03-01T12:53:43.647Z,98205.67
2019-03-01T12:56:12.810Z,98219.53
2019-03-01T12:58:42.015Z,98219.30
2019-03-01T13:01:11.156Z,98224.38
2019-03-01T13:03:40.723Z,98226.29
2019-03-01T13:06:11.254Z,98227.97
2019-03-01T13:08:40.427Z,98233.73
2019-03-01T13:11:12.558Z,98231.51
2019-03-01T13:13:40.562Z,98231.51
2019-03-01T13:16:09.692Z,98241.58
2019-03-01T13:18:38.875Z,98236.95
2019-03-01T13:21:09.699Z,98240.30
2019-03-01T13:23:40.461Z,98243.25
2019-03-01T13:26:10.493Z,98248.87
2019-03-01T13:28:39.628Z,98238.56
2019-03-01T13:31:11.390Z,98241.02
2019-03-01T13:33:39.663Z,98243.80
2019-03-01T13:36:08.918Z,98241.83
2019-03-01T13:38:38.130Z,98247.39
2019-03-01T13:41:07.355Z,98255.48
2019-03-01T13:43:36.552Z,98256.56
2019-03-01T13:46:05.807Z,98251.38
2019-03-01T13:48:35.011Z,98257.22
2019-03-01T13:51:04.264Z,98262.63
2019-03-01T13:53:34.290Z,98257.30
2019-03-01T13:56:03.616Z,98265.49
2019-03-01T13:58:33.141Z,98265.19
2019-03-01T14:01:02.288Z,98277.66
2019-03-01T14:03:32.364Z,98272.53
2019-03-01T14:06:02.289Z,98268.20
2019-03-01T14:08:31.618Z,98275.98
2019-03-01T14:11:00.780Z,98290.56
2019-03-01T14:13:29.947Z,98285.23
2019-03-01T14:15:59.107Z,98286.52
2019-03-01T14:18:28.291Z,98286.52
2019-03-01T14:20:58.230Z,98294.92
2019-03-01T14:23:28.507Z,98297.80
2019-03-01T14:25:57.849Z,98298.82
2019-03-01T14:28:27.000Z,98301.80
2019-03-01T14:30:56.192Z,98305.69
2019-03-01T14:33:25.437Z,98302.30
2019-03-01T14:35:55.028Z,98304.31
2019-03-01T14:38:26.730Z,98310.30
2019-03-01T14:40:56.157Z,98312.89
2019-03-01T14:43:26.779Z,98304.52
2019-03-01T14:45:55.994Z,98321.00
2019-03-01T14:48:25.480Z,98322.67
2019-03-01T14:50:55.158Z,98328.25
2019-03-01T14:53:24.964Z,98328.25
2019-03-01T14:55:59.743Z,98332.44
2019-03-01T14:58:33.190Z,98332.34
2019-03-01T15:01:28.767Z,98326.92
2019-03-01T15:03:58.196Z,98325.95
2019-03-01T15:06:27.347Z,98325.95
2019-03-01T15:08:56.547Z,98324.27
2019-03-01T15:11:25.938Z,98330.55
2019-03-01T15:13:56.097Z,98330.55
2019-03-01T15:16:26.031Z,98335.53
2019-03-01T15:18:55.222Z,98337.56
2019-03-01T15:21:24.403Z,98344.22
2019-03-01T15:23:56.165Z,98337.36
2019-03-01T15:26:26.683Z,98339.58
2019-03-01T15:28:58.591Z,98347.28
2019-03-01T15:31:27.280Z,98348.74
2019-03-01T15:33:56.443Z,98353.60
2019-03-01T15:36:25.676Z,98357.32
2019-03-01T15:38:55.114Z,98357.32
2019-03-01T15:41:24.278Z,98357.13
2019-03-01T15:43:53.362Z,98360.19
2019-03-01T15:46:22.458Z,98365.09
2019-03-01T15:48:51.593Z,98371.67
2019-03-01T15:51:21.061Z,98374.58
2019-03-01T15:53:50.142Z,98380.59
2019-03-01T15:56:19.278Z,98379.30
2019-03-01T15:58:48.382Z,98383.03
2019-03-01T16:01:17.605Z,98387.30
2019-03-01T16:03:46.688Z,98388.33
2019-03-01T16:06:19.198Z,98400.06
2019-03-01T16:08:47.962Z,98395.73
2019-03-01T16:11:17.796Z,98396.20
2019-03-01T16:13:49.133Z,98401.53
2019-03-01T16:16:17.759Z,98403.84
2019-03-01T16:18:47.773Z,98407.70
2019-03-01T16:21:16.811Z,98404.81
2019-03-01T16:23:45.882Z,98412.98
2019-03-01T16:26:15.035Z,98414.66
2019-03-01T16:28:44.047Z,98415.41
2019-03-01T16:31:13.095Z,98414.66
2019-03-01T16:33:42.237Z,98426.48
2019-03-01T16:36:17.647Z,98427.08
2019-03-01T16:38:48.729Z,98429.05
2019-03-01T16:41:20.712Z,98436.36
2019-03-01T16:43:49.853Z,98441.66
2019-03-01T16:46:19.130Z,98436.25
2019-03-01T16:48:52.223Z,98437.56
2019-03-01T16:51:19.970Z,98443.59
2019-03-01T16:53:49.573Z,98449.24
2019-03-01T16:56:22.285Z,98442.73
2019-03-01T16:59:03.874Z,98451.26
2019-03-01T17:01:32.411Z,98452.61
2019-03-01T17:04:09.743Z,98450.20
2019-03-01T17:06:39.265Z,98455.65
2019-03-01T17:09:11.785Z,98459.59
2019-03-01T17:11:41.541Z,98470.19
2019-03-01T17:14:11.057Z,98473.32
2019-03-01T17:16:40.341Z,98478.26
2019-03-01T17:19:09.676Z,98485.27
2019-03-01T17:21:38.780Z,98492.14
2019-03-01T17:24:07.936Z,98498.03
2019-03-01T17:26:39.015Z,98497.07
2019-03-01T17:29:07.986Z,98503.78
2019-03-01T17:31:37.142Z,98507.64
2019-03-01T17:34:06.585Z,98506.55
2019-03-01T17:36:39.990Z,98512.94
2019-03-01T17:39:09.386Z,98520.04
2019-03-01T17:41:38.543Z,98530.70
2019-03-01T17:44:08.552Z,98531.16
2019-03-01T17:46:44.919Z,98536.53
2019-03-01T17:49:14.599Z,98538.45
2019-03-01T17:51:43.690Z,98549.66
2019-03-01T17:54:12.869Z,98551.55
2019-03-01T17:56:44.487Z,98555.80
2019-03-01T18:03:22.842Z,98562.42
2019-03-01T18:05:52.869Z,98563.92
2019-03-01T18:08:35.791Z,98566.34
2019-03-01T18:11:08.753Z,98567.89
2019-03-01T18:13:38.919Z,98569.58
2019-03-01T18:16:09.962Z,98556.83
2019-03-01T18:18:42.430Z,98565.98
2019-03-01T18:21:13.155Z,98564.00
2019-03-01T18:23:44.323Z,98577.91
2019-03-01T18:26:14.115Z,98572.04
2019-03-01T18:28:44.929Z,98576.87
2019-03-01T18:31:15.295Z,98579.62
2019-03-01T18:33:45.810Z,98591.68
2019-03-01T18:36:15.873Z,98588.29
2019-03-01T18:38:46.050Z,98598.87
2019-03-01T18:41:15.994Z,98594.30
2019-03-01T18:43:45.761Z,98598.28
2019-03-01T18:46:20.373Z,98599.91
2019-03-01T18:48:49.303Z,98602.39
2019-03-01T18:51:20.102Z,98598.22
2019-03-01T18:53:50.387Z,98595.19
2019-03-01T18:56:20.641Z,98592.92
2019-03-01T18:58:49.866Z,98608.30
2019-03-01T19:01:19.227Z,98615.15
2019-03-01T19:03:48.592Z,98606.05
2019-03-01T19:06:17.884Z,98609.70
2019-03-01T19:08:47.285Z,98614.84
2019-03-01T19:11:17.064Z,98624.05
2019-03-01T19:13:46.325Z,98636.90
2019-03-01T19:16:15.803Z,98637.02
2019-03-01T19:18:48.254Z,98635.58
2019-03-01T19:21:17.383Z,98639.47
2019-03-01T19:23:47.622Z,98636.61
2019-03-01T19:26:16.879Z,98627.58
2019-03-01T19:28:46.206Z,98628.05
2019-03-01T19:31:15.584Z,98634.32
2019-03-01T19:33:45.248Z,98639.61
2019-03-01T19:36:14.483Z,98641.36
2019-03-01T19:38:43.771Z,98645.83
2019-03-01T19:41:13.138Z,98641.02
2019-03-01T19:43:45.656Z,98641.72
2019-03-01T19:46:15.659Z,98642.34
2019-03-01T19:48:44.877Z,98639.10
2019-03-01T19:51:14.059Z,98646.81
2019-03-01T19:53:43.335Z,98652.45
2019-03-01T19:56:12.690Z,98654.47
2019-03-01T19:58:44.140Z,98658.44
2019-03-01T20:01:14.684Z,98657.11
2019-03-01T20:03:45.439Z,98669.16
2019-03-01T20:06:15.510Z,98672.39
2019-03-01T20:08:44.704Z,98675.87
2019-03-01T20:11:13.956Z,98676.42
2019-03-01T20:13:43.596Z,98673.81
2019-03-01T20:16:12.787Z,98678.73
2019-03-01T20:18:45.016Z,98680.94
2019-03-01T20:21:13.315Z,98677.30
2019-03-01T20:23:42.555Z,98675.28
2019-03-01T20:26:11.765Z,98688.86
2019-03-01T20:28:41.063Z,98693.04
2019-03-01T20:31:12.892Z,98686.01
2019-03-01T20:33:43.733Z,98687.25
2019-03-01T20:36:17.694Z,98691.41
2019-03-01T20:38:46.069Z,98690.63
2019-03-01T20:41:16.459Z,98694.41
2019-03-01T20:43:46.928Z,98686.38
2019-03-01T20:46:17.407Z,98692.09
2019-03-01T20:48:47.703Z,98693.83
2019-03-01T20:51:18.163Z,98686.27
2019-03-01T20:53:49.747Z,98690.16
2019-03-01T20:56:23.165Z,98685.90
2019-03-01T20:58:55.461Z,98693.28
2019-03-01T21:01:25.549Z,98685.83
2019-03-01T21:03:55.877Z,98685.90
2019-03-01T21:06:26.490Z,98689.73
2019-03-01T21:08:56.990Z,98692.85
2019-03-01T21:11:27.108Z,98692.61
2019-03-01T21:13:57.449Z,98687.99
2019-03-01T21:16:27.608Z,98700.84
2019-03-01T21:18:59.751Z,98706.07
2019-03-01T21:21:29.818Z,98699.14
2019-03-01T21:24:00.134Z,98700.20
2019-03-01T21:26:30.410Z,98712.17
2019-03-01T21:29:01.135Z,98710.72
2019-03-01T21:31:31.855Z,98714.78
2019-03-01T21:34:03.764Z,98718.97
2019-03-01T21:36:33.934Z,98723.94
2019-03-01T21:39:04.729Z,98723.67
2019-03-01T21:41:33.884Z,98727.16
2019-03-01T21:44:03.003Z,98727.34
2019-03-01T21:46:34.078Z,98720.19
2019-03-01T21:49:03.160Z,98724.22
2019-03-01T21:51:32.341Z,98726.86
2019-03-01T21:54:01.411Z,98726.66
2019-03-01T21:56:30.595Z,98726.55
2019-03-01T21:58:59.777Z,98723.64
2019-03-01T22:01:28.944Z,98721.66
2019-03-01T22:03:59.357Z,98721.63
2019-03-01T22:06:29.065Z,98725.86
2019-03-01T22:08:58.224Z,98723.11
2019-03-01T22:11:27.396Z,98719.36
2019-03-01T22:13:56.635Z,98729.45
2019-03-01T22:16:25.724Z,98730.62
2019-03-01T22:18:55.523Z,98733.89
2019-03-01T22:21:25.837Z,98731.21
2019-03-01T22:23:54.982Z,98730.83
2019-03-01T22:26:24.347Z,98728.62
2019-03-01T22:29:00.124Z,98729.88
2019-03-01T22:31:32.584Z,98736.17
2019-03-01T22:34:01.379Z,98733.59
2019-03-01T22:36:30.528Z,98738.75
2019-03-01T22:38:59.724Z,98737.64
2019-03-01T22:41:28.900Z,98735.91
2019-03-01T22:43:58.338Z,98743.15
2019-03-01T22:46:28.980Z,98733.96
2019-03-01T22:48:58.126Z,98741.41
2019-03-01T22:51:27.326Z,98738.77
2019-03-01T22:53:56.767Z,98735.22
2019-03-01T22:56:26.034Z,98735.38
2019-03-01T22:58:55.259Z,98731.84
2019-03-01T23:01:43.552Z,98733.32
2019-03-01T23:04:13.525Z,98732.58
2019-03-01T23:06:42.674Z,98736.13
2019-03-01T23:09:15.531Z,98734.80
2019-03-01T23:11:44.852Z,98733.96
2019-03-01T23:14:14.402Z,98727.83
2019-03-01T23:16:43.531Z,98726.49
2019-03-01T23:19:15.893Z,98737.43
2019-03-01T23:21:43.579Z,98731.42
2019-03-01T23:24:12.730Z,98738.91
2019-03-01T23:26:41.876Z,98734.58
2019-03-01T23:29:11.385Z,98725.08
2019-03-01T23:31:43.630Z,98728.25
2019-03-01T23:34:12.862Z,98720.90
2019-03-01T23:36:41.988Z,98729.45
2019-03-01T23:39:11.363Z,98730.77
2019-03-01T23:41:46.041Z,98733.00
2019-03-01T23:44:14.185Z,98728.84
2019-03-01T23:46:43.324Z,98736.17
2019-03-01T23:49:12.845Z,98743.83
2019-03-01T23:51:42.537Z,98740.35
2019-03-01T23:54:12.803Z,98738.61
2019-03-01T23:56:42.229Z,98738.98
2019-03-01T23:59:11.425Z,98745.05
